sensor_id;sensor_type;location;lat;lon;timestamp;P1;durP1;ratioP1;P2;durP2;ratioP2
36411;SDS011;22445;52.100;5.176;2023-03-22T00:00:48;8.90;;;2.17;;
36411;SDS011;22445;52.100;5.176;2023-03-22T00:03:14;9.52;;;1.70;;
36411;SDS011;22445;52.100;5.176;2023-03-22T00:05:40;8.25;;;1.50;;
36411;SDS011;22445;52.100;5.176;2023-03-22T00:08:06;7.03;;;1.25;;
36411;SDS011;22445;52.100;5.176;2023-03-22T00:10:33;10.70;;;2.00;;
36411;SDS011;22445;52.100;5.176;2023-03-22T00:13:00;9.52;;;2.05;;
36411;SDS011;22445;52.100;5.176;2023-03-22T00:15:26;6.05;;;1.73;;
36411;SDS011;22445;52.100;5.176;2023-03-22T00:17:54;4.85;;;1.50;;
36411;SDS011;22445;52.100;5.176;2023-03-22T00:20:20;8.55;;;1.80;;
36411;SDS011;22445;52.100;5.176;2023-03-22T00:22:48;10.05;;;1.85;;
36411;SDS011;22445;52.100;5.176;2023-03-22T00:25:14;6.10;;;1.42;;
36411;SDS011;22445;52.100;5.176;2023-03-22T00:27:40;7.20;;;2.00;;
36411;SDS011;22445;52.100;5.176;2023-03-22T00:30:06;11.20;;;1.88;;
36411;SDS011;22445;52.100;5.176;2023-03-22T00:32:35;6.75;;;1.77;;
36411;SDS011;22445;52.100;5.176;2023-03-22T00:35:02;9.05;;;2.03;;
36411;SDS011;22445;52.100;5.176;2023-03-22T00:37:32;6.95;;;2.10;;
36411;SDS011;22445;52.100;5.176;2023-03-22T00:40:01;5.88;;;1.92;;
36411;SDS011;22445;52.100;5.176;2023-03-22T00:42:31;6.63;;;2.10;;
36411;SDS011;22445;52.100;5.176;2023-03-22T00:44:57;4.90;;;1.90;;
36411;SDS011;22445;52.100;5.176;2023-03-22T00:47:22;7.60;;;2.00;;
36411;SDS011;22445;52.100;5.176;2023-03-22T00:49:48;6.18;;;1.75;;
36411;SDS011;22445;52.100;5.176;2023-03-22T00:52:13;7.82;;;1.85;;
36411;SDS011;22445;52.100;5.176;2023-03-22T00:54:39;9.93;;;1.75;;
36411;SDS011;22445;52.100;5.176;2023-03-22T00:57:05;9.77;;;2.10;;
36411;SDS011;22445;52.100;5.176;2023-03-22T00:59:30;4.75;;;1.55;;
36411;SDS011;22445;52.100;5.176;2023-03-22T01:01:56;9.75;;;1.95;;
36411;SDS011;22445;52.100;5.176;2023-03-22T01:04:23;3.95;;;1.63;;
36411;SDS011;22445;52.100;5.176;2023-03-22T01:06:50;9.18;;;1.83;;
36411;SDS011;22445;52.100;5.176;2023-03-22T01:09:24;10.27;;;1.70;;
36411;SDS011;22445;52.100;5.176;2023-03-22T01:11:53;9.40;;;1.80;;
36411;SDS011;22445;52.100;5.176;2023-03-22T01:14:20;6.30;;;1.67;;
36411;SDS011;22445;52.100;5.176;2023-03-22T01:16:47;8.48;;;2.80;;
36411;SDS011;22445;52.100;5.176;2023-03-22T01:19:12;11.43;;;2.70;;
36411;SDS011;22445;52.100;5.176;2023-03-22T01:21:38;9.27;;;2.67;;
36411;SDS011;22445;52.100;5.176;2023-03-22T01:24:03;7.75;;;2.47;;
36411;SDS011;22445;52.100;5.176;2023-03-22T01:26:29;9.20;;;3.05;;
36411;SDS011;22445;52.100;5.176;2023-03-22T01:28:55;10.38;;;3.08;;
36411;SDS011;22445;52.100;5.176;2023-03-22T01:31:20;8.27;;;2.58;;
36411;SDS011;22445;52.100;5.176;2023-03-22T01:33:46;6.15;;;2.38;;
36411;SDS011;22445;52.100;5.176;2023-03-22T01:36:11;8.25;;;2.50;;
36411;SDS011;22445;52.100;5.176;2023-03-22T01:38:37;6.70;;;2.20;;
36411;SDS011;22445;52.100;5.176;2023-03-22T01:41:02;14.02;;;3.40;;
36411;SDS011;22445;52.100;5.176;2023-03-22T01:43:28;9.40;;;2.75;;
36411;SDS011;22445;52.100;5.176;2023-03-22T01:45:54;9.05;;;2.38;;
36411;SDS011;22445;52.100;5.176;2023-03-22T01:48:22;4.25;;;2.58;;
36411;SDS011;22445;52.100;5.176;2023-03-22T01:51:13;10.13;;;2.20;;
36411;SDS011;22445;52.100;5.176;2023-03-22T01:56:27;5.03;;;1.77;;
36411;SDS011;22445;52.100;5.176;2023-03-22T01:58:55;7.70;;;2.25;;
36411;SDS011;22445;52.100;5.176;2023-03-22T02:01:21;7.25;;;2.70;;
36411;SDS011;22445;52.100;5.176;2023-03-22T02:03:49;6.47;;;2.35;;
36411;SDS011;22445;52.100;5.176;2023-03-22T02:06:27;10.05;;;2.33;;
36411;SDS011;22445;52.100;5.176;2023-03-22T02:08:54;5.35;;;2.22;;
36411;SDS011;22445;52.100;5.176;2023-03-22T02:11:30;10.00;;;2.30;;
36411;SDS011;22445;52.100;5.176;2023-03-22T02:17:28;7.30;;;2.17;;
36411;SDS011;22445;52.100;5.176;2023-03-22T02:41:23;9.38;;;3.67;;
36411;SDS011;22445;52.100;5.176;2023-03-22T02:47:21;15.40;;;4.63;;
36411;SDS011;22445;52.100;5.176;2023-03-22T02:49:57;9.02;;;5.10;;
36411;SDS011;22445;52.100;5.176;2023-03-22T02:52:31;13.43;;;5.18;;
36411;SDS011;22445;52.100;5.176;2023-03-22T02:55:16;14.30;;;5.75;;
36411;SDS011;22445;52.100;5.176;2023-03-22T02:58:11;11.85;;;5.70;;
36411;SDS011;22445;52.100;5.176;2023-03-22T03:00:49;12.02;;;6.55;;
36411;SDS011;22445;52.100;5.176;2023-03-22T03:03:16;10.48;;;6.30;;
36411;SDS011;22445;52.100;5.176;2023-03-22T03:05:47;12.35;;;7.03;;
36411;SDS011;22445;52.100;5.176;2023-03-22T03:08:18;11.88;;;7.22;;
36411;SDS011;22445;52.100;5.176;2023-03-22T03:10:44;16.00;;;8.27;;
36411;SDS011;22445;52.100;5.176;2023-03-22T03:13:11;12.85;;;8.23;;
36411;SDS011;22445;52.100;5.176;2023-03-22T03:15:37;17.17;;;8.77;;
36411;SDS011;22445;52.100;5.176;2023-03-22T03:21:22;14.32;;;9.25;;
36411;SDS011;22445;52.100;5.176;2023-03-22T03:27:04;15.88;;;10.25;;
36411;SDS011;22445;52.100;5.176;2023-03-22T03:35:33;16.17;;;9.63;;
36411;SDS011;22445;52.100;5.176;2023-03-22T03:38:07;14.77;;;10.13;;
36411;SDS011;22445;52.100;5.176;2023-03-22T03:40:36;15.50;;;9.63;;
36411;SDS011;22445;52.100;5.176;2023-03-22T03:43:07;15.35;;;9.25;;
36411;SDS011;22445;52.100;5.176;2023-03-22T03:45:33;16.77;;;10.73;;
36411;SDS011;22445;52.100;5.176;2023-03-22T03:48:01;17.13;;;9.70;;
36411;SDS011;22445;52.100;5.176;2023-03-22T03:50:29;17.95;;;10.57;;
36411;SDS011;22445;52.100;5.176;2023-03-22T03:52:55;17.42;;;10.30;;
36411;SDS011;22445;52.100;5.176;2023-03-22T03:55:21;15.40;;;9.45;;
36411;SDS011;22445;52.100;5.176;2023-03-22T03:57:47;19.10;;;10.15;;
36411;SDS011;22445;52.100;5.176;2023-03-22T04:00:13;14.30;;;9.30;;
36411;SDS011;22445;52.100;5.176;2023-03-22T04:02:39;18.33;;;10.10;;
36411;SDS011;22445;52.100;5.176;2023-03-22T04:05:08;16.10;;;9.85;;
36411;SDS011;22445;52.100;5.176;2023-03-22T04:07:35;17.92;;;9.63;;
36411;SDS011;22445;52.100;5.176;2023-03-22T04:10:01;16.00;;;9.60;;
36411;SDS011;22445;52.100;5.176;2023-03-22T04:12:28;14.77;;;9.60;;
36411;SDS011;22445;52.100;5.176;2023-03-22T04:14:53;19.00;;;9.55;;
36411;SDS011;22445;52.100;5.176;2023-03-22T04:17:20;17.55;;;9.85;;
36411;SDS011;22445;52.100;5.176;2023-03-22T04:19:46;16.88;;;8.82;;
36411;SDS011;22445;52.100;5.176;2023-03-22T04:22:12;14.30;;;9.20;;
36411;SDS011;22445;52.100;5.176;2023-03-22T04:24:43;18.08;;;9.82;;
36411;SDS011;22445;52.100;5.176;2023-03-22T04:27:14;12.93;;;9.38;;
36411;SDS011;22445;52.100;5.176;2023-03-22T04:29:43;14.48;;;9.02;;
36411;SDS011;22445;52.100;5.176;2023-03-22T04:32:16;13.35;;;9.05;;
36411;SDS011;22445;52.100;5.176;2023-03-22T04:34:50;13.20;;;8.38;;
36411;SDS011;22445;52.100;5.176;2023-03-22T04:37:17;17.25;;;9.00;;
36411;SDS011;22445;52.100;5.176;2023-03-22T04:39:43;14.40;;;8.68;;
36411;SDS011;22445;52.100;5.176;2023-03-22T04:42:10;15.15;;;8.75;;
36411;SDS011;22445;52.100;5.176;2023-03-22T04:44:36;13.82;;;8.07;;
36411;SDS011;22445;52.100;5.176;2023-03-22T04:47:01;13.23;;;8.40;;
36411;SDS011;22445;52.100;5.176;2023-03-22T04:49:27;10.65;;;7.25;;
36411;SDS011;22445;52.100;5.176;2023-03-22T04:51:54;16.45;;;7.80;;
36411;SDS011;22445;52.100;5.176;2023-03-22T04:54:20;11.50;;;8.18;;
36411;SDS011;22445;52.100;5.176;2023-03-22T04:56:46;16.25;;;8.23;;
36411;SDS011;22445;52.100;5.176;2023-03-22T04:59:12;11.40;;;7.90;;
36411;SDS011;22445;52.100;5.176;2023-03-22T05:01:38;12.63;;;8.30;;
36411;SDS011;22445;52.100;5.176;2023-03-22T05:04:05;10.07;;;6.40;;
36411;SDS011;22445;52.100;5.176;2023-03-22T05:06:30;11.52;;;7.40;;
36411;SDS011;22445;52.100;5.176;2023-03-22T05:08:59;13.98;;;7.85;;
36411;SDS011;22445;52.100;5.176;2023-03-22T05:11:25;12.80;;;7.95;;
36411;SDS011;22445;52.100;5.176;2023-03-22T05:13:55;17.05;;;8.25;;
36411;SDS011;22445;52.100;5.176;2023-03-22T05:16:22;13.45;;;8.63;;
36411;SDS011;22445;52.100;5.176;2023-03-22T05:18:48;13.27;;;8.40;;
36411;SDS011;22445;52.100;5.176;2023-03-22T05:21:19;12.75;;;8.15;;
36411;SDS011;22445;52.100;5.176;2023-03-22T05:23:46;12.73;;;7.72;;
36411;SDS011;22445;52.100;5.176;2023-03-22T05:26:13;14.15;;;8.15;;
36411;SDS011;22445;52.100;5.176;2023-03-22T05:28:40;13.23;;;8.13;;
36411;SDS011;22445;52.100;5.176;2023-03-22T05:31:06;13.05;;;8.70;;
36411;SDS011;22445;52.100;5.176;2023-03-22T05:33:32;16.48;;;8.52;;
36411;SDS011;22445;52.100;5.176;2023-03-22T05:35:59;15.02;;;7.97;;
36411;SDS011;22445;52.100;5.176;2023-03-22T05:38:24;13.60;;;7.50;;
36411;SDS011;22445;52.100;5.176;2023-03-22T05:40:50;12.98;;;7.63;;
36411;SDS011;22445;52.100;5.176;2023-03-22T05:43:16;13.13;;;7.95;;
36411;SDS011;22445;52.100;5.176;2023-03-22T05:45:42;15.77;;;8.23;;
36411;SDS011;22445;52.100;5.176;2023-03-22T05:48:07;15.63;;;8.20;;
36411;SDS011;22445;52.100;5.176;2023-03-22T05:50:33;11.50;;;7.05;;
36411;SDS011;22445;52.100;5.176;2023-03-22T05:52:59;14.68;;;7.57;;
36411;SDS011;22445;52.100;5.176;2023-03-22T05:55:25;10.65;;;6.63;;
36411;SDS011;22445;52.100;5.176;2023-03-22T05:57:51;10.95;;;6.43;;
36411;SDS011;22445;52.100;5.176;2023-03-22T06:00:19;12.60;;;6.40;;
36411;SDS011;22445;52.100;5.176;2023-03-22T06:02:46;10.88;;;6.45;;
36411;SDS011;22445;52.100;5.176;2023-03-22T06:05:13;10.27;;;5.43;;
36411;SDS011;22445;52.100;5.176;2023-03-22T06:07:40;12.25;;;5.53;;
36411;SDS011;22445;52.100;5.176;2023-03-22T06:10:07;9.95;;;6.07;;
36411;SDS011;22445;52.100;5.176;2023-03-22T06:12:33;9.43;;;5.40;;
36411;SDS011;22445;52.100;5.176;2023-03-22T06:14:59;11.63;;;5.85;;
36411;SDS011;22445;52.100;5.176;2023-03-22T06:17:25;12.30;;;5.90;;
36411;SDS011;22445;52.100;5.176;2023-03-22T06:19:51;10.80;;;5.43;;
36411;SDS011;22445;52.100;5.176;2023-03-22T06:22:18;9.98;;;5.18;;
36411;SDS011;22445;52.100;5.176;2023-03-22T06:24:44;13.10;;;5.15;;
36411;SDS011;22445;52.100;5.176;2023-03-22T06:27:09;8.93;;;4.57;;
36411;SDS011;22445;52.100;5.176;2023-03-22T06:29:35;9.65;;;4.80;;
36411;SDS011;22445;52.100;5.176;2023-03-22T06:32:00;8.75;;;4.03;;
36411;SDS011;22445;52.100;5.176;2023-03-22T06:34:27;9.38;;;4.50;;
36411;SDS011;22445;52.100;5.176;2023-03-22T06:36:53;10.38;;;4.32;;
36411;SDS011;22445;52.100;5.176;2023-03-22T06:39:19;8.07;;;3.65;;
36411;SDS011;22445;52.100;5.176;2023-03-22T06:41:45;7.03;;;3.35;;
36411;SDS011;22445;52.100;5.176;2023-03-22T06:44:11;9.45;;;4.25;;
36411;SDS011;22445;52.100;5.176;2023-03-22T06:46:37;8.23;;;3.17;;
36411;SDS011;22445;52.100;5.176;2023-03-22T06:49:03;9.45;;;3.70;;
36411;SDS011;22445;52.100;5.176;2023-03-22T06:51:29;9.10;;;3.13;;
36411;SDS011;22445;52.100;5.176;2023-03-22T06:53:54;9.68;;;3.30;;
36411;SDS011;22445;52.100;5.176;2023-03-22T06:56:20;9.50;;;3.70;;
36411;SDS011;22445;52.100;5.176;2023-03-22T06:58:46;8.73;;;3.25;;
36411;SDS011;22445;52.100;5.176;2023-03-22T07:01:11;12.93;;;3.05;;
36411;SDS011;22445;52.100;5.176;2023-03-22T07:03:37;7.30;;;2.50;;
36411;SDS011;22445;52.100;5.176;2023-03-22T07:06:04;9.02;;;2.75;;
36411;SDS011;22445;52.100;5.176;2023-03-22T07:08:31;8.02;;;3.00;;
36411;SDS011;22445;52.100;5.176;2023-03-22T07:10:57;7.22;;;2.70;;
36411;SDS011;22445;52.100;5.176;2023-03-22T07:13:23;7.20;;;2.65;;
36411;SDS011;22445;52.100;5.176;2023-03-22T07:15:48;7.22;;;2.78;;
36411;SDS011;22445;52.100;5.176;2023-03-22T07:18:14;13.15;;;3.22;;
36411;SDS011;22445;52.100;5.176;2023-03-22T07:20:39;10.38;;;2.55;;
36411;SDS011;22445;52.100;5.176;2023-03-22T07:23:09;9.93;;;3.65;;
36411;SDS011;22445;52.100;5.176;2023-03-22T07:25:34;9.80;;;2.40;;
36411;SDS011;22445;52.100;5.176;2023-03-22T07:28:00;6.57;;;2.33;;
36411;SDS011;22445;52.100;5.176;2023-03-22T07:30:26;5.60;;;2.20;;
36411;SDS011;22445;52.100;5.176;2023-03-22T07:32:51;8.13;;;2.47;;
36411;SDS011;22445;52.100;5.176;2023-03-22T07:35:17;9.10;;;2.97;;
36411;SDS011;22445;52.100;5.176;2023-03-22T07:37:43;5.78;;;2.28;;
36411;SDS011;22445;52.100;5.176;2023-03-22T07:40:09;5.65;;;1.95;;
36411;SDS011;22445;52.100;5.176;2023-03-22T07:42:36;7.82;;;2.17;;
36411;SDS011;22445;52.100;5.176;2023-03-22T07:45:02;6.65;;;1.70;;
36411;SDS011;22445;52.100;5.176;2023-03-22T07:47:28;4.10;;;2.13;;
36411;SDS011;22445;52.100;5.176;2023-03-22T07:49:54;5.63;;;2.25;;
36411;SDS011;22445;52.100;5.176;2023-03-22T07:52:19;11.68;;;2.17;;
36411;SDS011;22445;52.100;5.176;2023-03-22T07:54:45;7.93;;;2.00;;
36411;SDS011;22445;52.100;5.176;2023-03-22T07:57:11;8.90;;;2.30;;
36411;SDS011;22445;52.100;5.176;2023-03-22T07:59:36;6.63;;;1.88;;
36411;SDS011;22445;52.100;5.176;2023-03-22T08:02:02;6.07;;;2.22;;
36411;SDS011;22445;52.100;5.176;2023-03-22T08:04:28;6.82;;;1.75;;
36411;SDS011;22445;52.100;5.176;2023-03-22T08:06:54;11.10;;;2.08;;
36411;SDS011;22445;52.100;5.176;2023-03-22T08:09:23;9.27;;;2.20;;
36411;SDS011;22445;52.100;5.176;2023-03-22T08:11:49;7.38;;;1.63;;
36411;SDS011;22445;52.100;5.176;2023-03-22T08:14:15;8.50;;;2.22;;
36411;SDS011;22445;52.100;5.176;2023-03-22T08:16:41;12.02;;;2.58;;
36411;SDS011;22445;52.100;5.176;2023-03-22T08:19:08;5.30;;;1.95;;
36411;SDS011;22445;52.100;5.176;2023-03-22T08:21:34;7.60;;;1.85;;
36411;SDS011;22445;52.100;5.176;2023-03-22T08:24:00;8.10;;;1.83;;
36411;SDS011;22445;52.100;5.176;2023-03-22T08:26:25;7.13;;;1.90;;
36411;SDS011;22445;52.100;5.176;2023-03-22T08:28:51;7.47;;;2.58;;
36411;SDS011;22445;52.100;5.176;2023-03-22T08:31:17;8.68;;;2.05;;
36411;SDS011;22445;52.100;5.176;2023-03-22T08:33:44;8.75;;;2.28;;
36411;SDS011;22445;52.100;5.176;2023-03-22T08:36:11;10.88;;;2.40;;
36411;SDS011;22445;52.100;5.176;2023-03-22T08:38:40;10.20;;;2.50;;
36411;SDS011;22445;52.100;5.176;2023-03-22T08:41:09;4.57;;;1.35;;
36411;SDS011;22445;52.100;5.176;2023-03-22T08:43:40;9.15;;;2.22;;
36411;SDS011;22445;52.100;5.176;2023-03-22T08:46:06;6.95;;;2.30;;
36411;SDS011;22445;52.100;5.176;2023-03-22T08:48:32;7.60;;;2.03;;
36411;SDS011;22445;52.100;5.176;2023-03-22T08:51:00;9.15;;;2.70;;
36411;SDS011;22445;52.100;5.176;2023-03-22T08:53:26;8.18;;;2.58;;
36411;SDS011;22445;52.100;5.176;2023-03-22T08:55:52;6.85;;;1.05;;
36411;SDS011;22445;52.100;5.176;2023-03-22T08:58:18;8.32;;;2.13;;
36411;SDS011;22445;52.100;5.176;2023-03-22T09:00:44;8.07;;;2.00;;
36411;SDS011;22445;52.100;5.176;2023-03-22T09:03:11;6.63;;;1.80;;
36411;SDS011;22445;52.100;5.176;2023-03-22T09:05:36;0.00;;;0.00;;
36411;SDS011;22445;52.100;5.176;2023-03-22T09:08:02;0.10;;;0.10;;
36411;SDS011;22445;52.100;5.176;2023-03-22T09:10:30;4.43;;;1.35;;
36411;SDS011;22445;52.100;5.176;2023-03-22T09:12:56;5.15;;;1.85;;
36411;SDS011;22445;52.100;5.176;2023-03-22T09:15:22;9.02;;;2.60;;
36411;SDS011;22445;52.100;5.176;2023-03-22T09:17:47;4.88;;;2.20;;
36411;SDS011;22445;52.100;5.176;2023-03-22T09:20:13;7.53;;;2.67;;
36411;SDS011;22445;52.100;5.176;2023-03-22T09:22:39;6.60;;;2.13;;
36411;SDS011;22445;52.100;5.176;2023-03-22T09:25:04;10.35;;;2.10;;
36411;SDS011;22445;52.100;5.176;2023-03-22T09:27:31;11.30;;;2.53;;
36411;SDS011;22445;52.100;5.176;2023-03-22T09:29:57;8.88;;;2.38;;
36411;SDS011;22445;52.100;5.176;2023-03-22T09:32:22;4.75;;;2.13;;
36411;SDS011;22445;52.100;5.176;2023-03-22T09:34:48;8.35;;;2.78;;
36411;SDS011;22445;52.100;5.176;2023-03-22T09:37:13;11.45;;;3.38;;
36411;SDS011;22445;52.100;5.176;2023-03-22T09:39:39;9.98;;;2.95;;
36411;SDS011;22445;52.100;5.176;2023-03-22T09:42:06;7.00;;;2.35;;
36411;SDS011;22445;52.100;5.176;2023-03-22T09:44:55;5.65;;;2.63;;
36411;SDS011;22445;52.100;5.176;2023-03-22T09:47:24;4.57;;;1.67;;
36411;SDS011;22445;52.100;5.176;2023-03-22T09:50:04;8.25;;;3.17;;
36411;SDS011;22445;52.100;5.176;2023-03-22T09:52:33;7.78;;;1.75;;
36411;SDS011;22445;52.100;5.176;2023-03-22T09:54:58;10.85;;;3.10;;
36411;SDS011;22445;52.100;5.176;2023-03-22T10:00:21;10.52;;;3.75;;
36411;SDS011;22445;52.100;5.176;2023-03-22T10:02:53;5.97;;;2.75;;
36411;SDS011;22445;52.100;5.176;2023-03-22T10:05:35;6.68;;;3.22;;
36411;SDS011;22445;52.100;5.176;2023-03-22T10:15:07;10.40;;;2.38;;
36411;SDS011;22445;52.100;5.176;2023-03-22T10:17:54;7.20;;;2.60;;
36411;SDS011;22445;52.100;5.176;2023-03-22T10:26:26;7.40;;;2.92;;
36411;SDS011;22445;52.100;5.176;2023-03-22T10:28:58;9.80;;;3.60;;
36411;SDS011;22445;52.100;5.176;2023-03-22T10:31:27;13.60;;;3.22;;
36411;SDS011;22445;52.100;5.176;2023-03-22T10:33:54;9.90;;;3.70;;
36411;SDS011;22445;52.100;5.176;2023-03-22T10:36:23;16.67;;;3.20;;
36411;SDS011;22445;52.100;5.176;2023-03-22T10:38:53;6.95;;;2.53;;
36411;SDS011;22445;52.100;5.176;2023-03-22T10:41:21;9.63;;;2.75;;
36411;SDS011;22445;52.100;5.176;2023-03-22T10:43:52;7.25;;;2.55;;
36411;SDS011;22445;52.100;5.176;2023-03-22T10:46:20;5.35;;;2.97;;
36411;SDS011;22445;52.100;5.176;2023-03-22T10:48:50;5.28;;;3.17;;
36411;SDS011;22445;52.100;5.176;2023-03-22T10:51:39;7.38;;;2.92;;
36411;SDS011;22445;52.100;5.176;2023-03-22T10:54:04;11.98;;;3.13;;
36411;SDS011;22445;52.100;5.176;2023-03-22T10:56:34;12.73;;;3.60;;
36411;SDS011;22445;52.100;5.176;2023-03-22T10:58:59;7.50;;;2.70;;
36411;SDS011;22445;52.100;5.176;2023-03-22T11:01:26;12.07;;;3.35;;
36411;SDS011;22445;52.100;5.176;2023-03-22T11:03:55;6.85;;;2.85;;
36411;SDS011;22445;52.100;5.176;2023-03-22T11:06:24;8.20;;;3.05;;
36411;SDS011;22445;52.100;5.176;2023-03-22T11:08:58;10.70;;;3.25;;
36411;SDS011;22445;52.100;5.176;2023-03-22T11:14:30;7.65;;;2.80;;
36411;SDS011;22445;52.100;5.176;2023-03-22T11:16:59;8.05;;;2.92;;
36411;SDS011;22445;52.100;5.176;2023-03-22T11:19:55;6.75;;;3.00;;
36411;SDS011;22445;52.100;5.176;2023-03-22T11:25:16;8.40;;;2.95;;
36411;SDS011;22445;52.100;5.176;2023-03-22T11:27:49;5.47;;;2.58;;
36411;SDS011;22445;52.100;5.176;2023-03-22T11:30:24;7.80;;;3.00;;
36411;SDS011;22445;52.100;5.176;2023-03-22T11:35:56;6.65;;;2.60;;
36411;SDS011;22445;52.100;5.176;2023-03-22T11:41:09;5.30;;;2.30;;
36411;SDS011;22445;52.100;5.176;2023-03-22T11:43:47;3.72;;;1.95;;
36411;SDS011;22445;52.100;5.176;2023-03-22T11:46:15;4.07;;;2.20;;
36411;SDS011;22445;52.100;5.176;2023-03-22T11:48:43;5.25;;;1.77;;
36411;SDS011;22445;52.100;5.176;2023-03-22T11:51:43;6.18;;;2.40;;
36411;SDS011;22445;52.100;5.176;2023-03-22T11:54:07;4.88;;;2.08;;
36411;SDS011;22445;52.100;5.176;2023-03-22T11:56:40;6.10;;;2.70;;
36411;SDS011;22445;52.100;5.176;2023-03-22T11:59:11;10.40;;;2.08;;
36411;SDS011;22445;52.100;5.176;2023-03-22T12:01:48;4.93;;;2.15;;
36411;SDS011;22445;52.100;5.176;2023-03-22T12:04:41;4.65;;;2.22;;
36411;SDS011;22445;52.100;5.176;2023-03-22T12:07:17;4.15;;;2.47;;
36411;SDS011;22445;52.100;5.176;2023-03-22T12:09:51;10.35;;;2.78;;
36411;SDS011;22445;52.100;5.176;2023-03-22T12:12:38;5.00;;;2.17;;
36411;SDS011;22445;52.100;5.176;2023-03-22T12:15:25;4.53;;;2.30;;
36411;SDS011;22445;52.100;5.176;2023-03-22T12:20:56;6.65;;;2.20;;
36411;SDS011;22445;52.100;5.176;2023-03-22T12:23:23;5.63;;;2.08;;
36411;SDS011;22445;52.100;5.176;2023-03-22T12:25:59;7.93;;;2.38;;
36411;SDS011;22445;52.100;5.176;2023-03-22T12:28:28;3.17;;;1.92;;
36411;SDS011;22445;52.100;5.176;2023-03-22T12:31:02;5.70;;;2.65;;
36411;SDS011;22445;52.100;5.176;2023-03-22T12:39:07;4.55;;;2.30;;
36411;SDS011;22445;52.100;5.176;2023-03-22T12:41:38;4.03;;;2.33;;
36411;SDS011;22445;52.100;5.176;2023-03-22T12:44:17;4.45;;;2.40;;
36411;SDS011;22445;52.100;5.176;2023-03-22T12:46:50;3.42;;;2.28;;
36411;SDS011;22445;52.100;5.176;2023-03-22T12:52:32;6.72;;;2.70;;
36411;SDS011;22445;52.100;5.176;2023-03-22T12:55:02;5.00;;;3.10;;
36411;SDS011;22445;52.100;5.176;2023-03-22T12:57:29;3.67;;;2.55;;
36411;SDS011;22445;52.100;5.176;2023-03-22T12:59:56;9.23;;;3.10;;
36411;SDS011;22445;52.100;5.176;2023-03-22T13:02:28;5.13;;;2.90;;
36411;SDS011;22445;52.100;5.176;2023-03-22T13:04:56;6.63;;;2.72;;
36411;SDS011;22445;52.100;5.176;2023-03-22T13:13:42;3.88;;;2.78;;
36411;SDS011;22445;52.100;5.176;2023-03-22T13:19:25;7.88;;;2.78;;
36411;SDS011;22445;52.100;5.176;2023-03-22T13:28:00;3.67;;;2.17;;
36411;SDS011;22445;52.100;5.176;2023-03-22T13:30:48;7.28;;;2.30;;
36411;SDS011;22445;52.100;5.176;2023-03-22T13:36:06;6.50;;;2.28;;
36411;SDS011;22445;52.100;5.176;2023-03-22T13:38:56;7.00;;;2.13;;
36411;SDS011;22445;52.100;5.176;2023-03-22T13:41:26;5.68;;;2.30;;
36411;SDS011;22445;52.100;5.176;2023-03-22T13:43:59;6.32;;;2.60;;
36411;SDS011;22445;52.100;5.176;2023-03-22T13:52:34;3.92;;;2.22;;
36411;SDS011;22445;52.100;5.176;2023-03-22T13:55:03;4.15;;;2.10;;
36411;SDS011;22445;52.100;5.176;2023-03-22T14:00:33;3.97;;;2.00;;
36411;SDS011;22445;52.100;5.176;2023-03-22T14:03:02;6.82;;;2.58;;
36411;SDS011;22445;52.100;5.176;2023-03-22T14:05:36;5.88;;;2.67;;
36411;SDS011;22445;52.100;5.176;2023-03-22T14:08:02;3.65;;;2.42;;
36411;SDS011;22445;52.100;5.176;2023-03-22T14:10:51;4.47;;;2.35;;
36411;SDS011;22445;52.100;5.176;2023-03-22T14:13:29;6.70;;;2.53;;
36411;SDS011;22445;52.100;5.176;2023-03-22T14:16:05;3.33;;;2.28;;
36411;SDS011;22445;52.100;5.176;2023-03-22T14:18:34;5.97;;;2.38;;
36411;SDS011;22445;52.100;5.176;2023-03-22T14:21:05;7.57;;;2.10;;
36411;SDS011;22445;52.100;5.176;2023-03-22T14:23:33;5.38;;;2.67;;
36411;SDS011;22445;52.100;5.176;2023-03-22T14:26:11;5.68;;;2.40;;
36411;SDS011;22445;52.100;5.176;2023-03-22T14:28:40;5.93;;;2.38;;
36411;SDS011;22445;52.100;5.176;2023-03-22T14:31:27;4.70;;;2.75;;
36411;SDS011;22445;52.100;5.176;2023-03-22T14:33:54;6.57;;;2.78;;
36411;SDS011;22445;52.100;5.176;2023-03-22T14:36:20;4.82;;;2.40;;
36411;SDS011;22445;52.100;5.176;2023-03-22T14:38:47;5.13;;;2.47;;
36411;SDS011;22445;52.100;5.176;2023-03-22T14:41:16;7.78;;;3.03;;
36411;SDS011;22445;52.100;5.176;2023-03-22T14:43:46;8.52;;;2.97;;
36411;SDS011;22445;52.100;5.176;2023-03-22T14:46:20;4.25;;;2.47;;
36411;SDS011;22445;52.100;5.176;2023-03-22T14:51:39;6.35;;;3.45;;
36411;SDS011;22445;52.100;5.176;2023-03-22T14:54:06;6.85;;;3.95;;
36411;SDS011;22445;52.100;5.176;2023-03-22T14:56:37;6.40;;;3.63;;
36411;SDS011;22445;52.100;5.176;2023-03-22T14:59:03;6.50;;;4.32;;
36411;SDS011;22445;52.100;5.176;2023-03-22T15:01:31;7.85;;;4.85;;
36411;SDS011;22445;52.100;5.176;2023-03-22T15:04:03;10.57;;;5.10;;
36411;SDS011;22445;52.100;5.176;2023-03-22T15:06:32;0.08;;;0.08;;
36411;SDS011;22445;52.100;5.176;2023-03-22T15:09:07;0.85;;;0.85;;
36411;SDS011;22445;52.100;5.176;2023-03-22T15:11:34;0.90;;;0.38;;
36411;SDS011;22445;52.100;5.176;2023-03-22T15:14:01;0.03;;;0.03;;
36411;SDS011;22445;52.100;5.176;2023-03-22T15:16:27;10.73;;;6.20;;
36411;SDS011;22445;52.100;5.176;2023-03-22T15:18:56;8.57;;;5.70;;
36411;SDS011;22445;52.100;5.176;2023-03-22T15:21:23;11.27;;;6.22;;
36411;SDS011;22445;52.100;5.176;2023-03-22T15:23:51;13.18;;;6.63;;
36411;SDS011;22445;52.100;5.176;2023-03-22T15:29:08;9.32;;;7.78;;
36411;SDS011;22445;52.100;5.176;2023-03-22T15:31:41;10.23;;;7.43;;
36411;SDS011;22445;52.100;5.176;2023-03-22T15:34:18;11.52;;;7.18;;
36411;SDS011;22445;52.100;5.176;2023-03-22T15:36:45;0.00;;;0.00;;
36411;SDS011;22445;52.100;5.176;2023-03-22T15:39:24;0.28;;;0.28;;
36411;SDS011;22445;52.100;5.176;2023-03-22T15:45:39;0.65;;;0.65;;
36411;SDS011;22445;52.100;5.176;2023-03-22T15:50:46;0.05;;;0.00;;
36411;SDS011;22445;52.100;5.176;2023-03-22T15:53:29;0.10;;;0.10;;
36411;SDS011;22445;52.100;5.176;2023-03-22T15:55:55;0.20;;;0.20;;
36411;SDS011;22445;52.100;5.176;2023-03-22T15:58:28;0.45;;;0.45;;
36411;SDS011;22445;52.100;5.176;2023-03-22T16:01:15;7.43;;;5.35;;
36411;SDS011;22445;52.100;5.176;2023-03-22T16:06:34;9.02;;;6.18;;
36411;SDS011;22445;52.100;5.176;2023-03-22T16:09:00;12.88;;;5.25;;
36411;SDS011;22445;52.100;5.176;2023-03-22T16:11:27;11.75;;;5.22;;
36411;SDS011;22445;52.100;5.176;2023-03-22T16:13:53;6.80;;;5.10;;
36411;SDS011;22445;52.100;5.176;2023-03-22T16:16:21;7.85;;;5.38;;
36411;SDS011;22445;52.100;5.176;2023-03-22T16:18:49;7.53;;;4.97;;
36411;SDS011;22445;52.100;5.176;2023-03-22T16:21:15;11.05;;;5.53;;
36411;SDS011;22445;52.100;5.176;2023-03-22T16:23:41;8.38;;;5.50;;
36411;SDS011;22445;52.100;5.176;2023-03-22T16:26:15;8.93;;;5.70;;
36411;SDS011;22445;52.100;5.176;2023-03-22T16:28:42;8.82;;;5.28;;
36411;SDS011;22445;52.100;5.176;2023-03-22T16:31:15;7.75;;;5.10;;
36411;SDS011;22445;52.100;5.176;2023-03-22T16:33:42;0.40;;;0.38;;
36411;SDS011;22445;52.100;5.176;2023-03-22T16:36:18;0.00;;;0.00;;
36411;SDS011;22445;52.100;5.176;2023-03-22T16:38:45;0.45;;;0.45;;
36411;SDS011;22445;52.100;5.176;2023-03-22T16:44:03;0.10;;;0.10;;
36411;SDS011;22445;52.100;5.176;2023-03-22T16:46:29;0.40;;;0.40;;
36411;SDS011;22445;52.100;5.176;2023-03-22T16:48:55;0.00;;;0.00;;
36411;SDS011;22445;52.100;5.176;2023-03-22T16:51:24;1.20;;;1.20;;
36411;SDS011;22445;52.100;5.176;2023-03-22T16:53:54;0.00;;;0.00;;
36411;SDS011;22445;52.100;5.176;2023-03-22T16:56:22;0.32;;;0.32;;
36411;SDS011;22445;52.100;5.176;2023-03-22T16:58:48;0.00;;;0.00;;
36411;SDS011;22445;52.100;5.176;2023-03-22T17:01:15;0.80;;;0.57;;